Impacts METAR Board
IDs:

KMNZ - Hamilton Muni, TX, US

Updated at: 0100 UTC 01 Nov 2020
Potential Impact None Slight Moderate High
Time 31/13Z 31/14Z 31/15Z 31/16Z 31/17Z 31/18Z 31/19Z 31/20Z 31/21Z 31/22Z 31/23Z 01/00Z 01/01Z
Temp41 47 55 63 66 70 74 75 75 75 73 65 61
Dewpt38 41 42 38 40 40 39 39 40 41 42 46 46
Altim30.20 30.22 30.23 30.24 30.21 30.19 30.14 30.11 30.10 30.09 30.09 30.10 30.12
VIS10 10 10 10 10 10 10 10 10 10 10 10 10
CIG-- -- -- -- -- -- -- -- -- -- -- -- --
CoverCLRCLRCLRCLRCLRCLRCLRCLRCLRCLRCLRCLRCLR
FltCatVFRVFRVFRVFRVFRVFRVFRVFRVFRVFRVFRVFRVFR
WX--------------------------
WDir200200180190210200180180200180180140160
WSpd8 6 8 11 7 6 12 9 10 9 7 5 5
WGst-- -- -- 14 -- 14 -- 15 -- -- -- -- --
Raw hourly METARs
KMNZ 311255Z AUTO 20008KT 10SM CLR 05/03 A3020 RMK AO2 T00500032
KMNZ 311355Z AUTO 20006KT 10SM CLR 08/05 A3022 RMK AO2 T00830052
KMNZ 311455Z AUTO 18008KT 10SM CLR 13/05 A3023 RMK AO2 T01290053
KMNZ 311555Z AUTO 19011G14KT 10SM CLR 17/03 A3024 RMK AO2 T01700031
KMNZ 311655Z AUTO 21007KT 10SM CLR 19/05 A3021 RMK AO2 T01900046
KMNZ 311755Z AUTO 20006G14KT 10SM CLR 21/04 A3019 RMK AO2 T02130044 10214 20046
KMNZ 311855Z AUTO 18012KT 10SM CLR 23/04 A3014 RMK AO2 T02310039
KMNZ 311955Z AUTO 18009G15KT 10SM CLR 24/04 A3011 RMK AO2 T02370040
KMNZ 312055Z AUTO 20010KT 10SM CLR 24/05 A3010 RMK AO2 T02400047
KMNZ 312155Z AUTO 18009KT 10SM CLR 24/05 A3009 RMK AO2 T02380052
KMNZ 312255Z AUTO 18007KT 10SM CLR 23/05 A3009 RMK AO2 T02250053
KMNZ 312355Z AUTO 14005KT 10SM CLR 19/08 A3010 RMK AO2 T01860077 10241 20186
KMNZ 010055Z AUTO 16005KT 10SM CLR 16/08 A3012 RMK AO2 T01590080